Babelthuap Airport Babelthuap Island PW
ICAO: PTRO
IATA:
Category: Medium
Scheduled Services:

Elevation: 176 ft
TransAlt. 0 ft.

Airport Communications:
KOROR RDO:123.6

PTRO Zoom In..

If you have problems with the map follow the link
https://www.worldairports.se/pages/airport.php?
ICAO=PTRO

Runways:

(A) RW 09 length 7200 ft width 151 ft
---- / hdg 90

(B) RW 27 length 7200 ft width 151 ft
---- / hdg 270

Location; PTRO
Day. 05 / Time. 14.50 Zulu
* Altimeter: 29.80
* Temperature: 26° c. 78.8°f.
* Wind from: 270° Speed 05 kn.
Dewpoint: 25° c.
Visibility: 14 Statute Miles.
Clouds: Broken 1500 ft.
Clouds: Overcast 29000 ft.
Conditions: Cumulonimbus.

PTRO 051450Z 27005KT 14SM BKN015CB OVC290 26/25 A2980 RMK CB ALQDS


Wind From 270°
Speed 05 kn.

 
 
jpsmedia worldairports.se 2019   terms of use